Time;durP1;ratioP1;P1;durP2;ratioP2;P2;SDS_P1;SDS_P2;PMS_P1;PMS_P2;Temp;Humidity;BMP_temperature;BMP_pressure;BME280_temperature;BME280_humidity;BME280_pressure;Samples;Min_cycle;Max_cycle;Signal;HPM_P1;HPM_P2
2023/05/30 00:02:14;;;;;;;12.77;6.80;;;;;;;14.28;100.00;94471.63;5048159;28;20043;-83
2023/05/30 00:04:40;;;;;;;15.38;7.53;;;;;;;14.31;100.00;94466.84;5056381;28;20032;-83
2023/05/30 00:07:06;;;;;;;13.52;6.68;;;;;;;14.30;100.00;94473.19;5048338;28;20032;-83
2023/05/30 00:09:31;;;;;;;17.67;7.75;;;;;;;14.33;100.00;94468.13;5058051;28;20071;-83
2023/05/30 00:11:57;;;;;;;15.23;7.85;;;;;;;14.01;100.00;94469.69;5058560;28;20456;-82
2023/05/30 00:14:47;;;;;;;19.42;6.80;;;;;;;14.00;100.00;94466.25;5058211;28;20040;-83
2023/05/30 00:17:16;;;;;;;20.52;7.15;;;;;;;14.02;100.00;94465.97;5042368;28;20377;-83
2023/05/30 00:19:42;;;;;;;14.60;6.82;;;;;;;14.17;100.00;94470.22;5058288;28;20031;-82
2023/05/30 00:24:53;;;;;;;17.02;7.30;;;;;;;14.04;100.00;94463.84;5039015;28;20118;-82
2023/05/30 00:27:19;;;;;;;14.43;6.65;;;;;;;14.15;100.00;94456.56;5035838;28;20033;-82
2023/05/30 00:29:45;;;;;;;16.60;7.05;;;;;;;13.98;100.00;94455.22;5039792;28;20035;-82
2023/05/30 00:32:11;;;;;;;13.82;6.32;;;;;;;13.84;100.00;94454.38;5023661;28;20075;-82
2023/05/30 00:34:37;;;;;;;16.13;6.57;;;;;;;13.83;100.00;94464.13;5023109;28;20060;-82
2023/05/30 00:37:02;;;;;;;10.35;5.75;;;;;;;14.05;100.00;94461.97;5022943;28;20357;-82
2023/05/30 00:39:28;;;;;;;17.98;7.20;;;;;;;13.94;100.00;94459.50;5039865;28;20036;-82
2023/05/30 00:41:54;;;;;;;20.40;7.35;;;;;;;13.93;100.00;94457.94;5039669;28;20028;-82
2023/05/30 00:47:22;;;;;;;14.02;6.55;;;;;;;13.74;100.00;94457.16;5056929;28;20040;-82
2023/05/30 00:49:48;;;;;;;10.50;6.03;;;;;;;13.96;100.00;94456.56;5023357;28;20028;-82
2023/05/30 00:52:13;;;;;;;14.35;7.07;;;;;;;13.84;100.00;94454.38;5039377;28;20385;-82
2023/05/30 00:55:02;;;;;;;12.82;6.88;;;;;;;13.73;100.00;94452.94;5057135;28;20032;-82
2023/05/30 00:57:29;;;;;;;14.90;7.13;;;;;;;13.62;100.00;94458.34;5056968;28;20362;-83
2023/05/30 00:59:55;;;;;;;11.40;6.50;;;;;;;13.76;100.00;94462.91;5039216;28;20033;-82
2023/05/30 01:02:39;;;;;;;14.93;6.53;;;;;;;13.89;100.00;94459.56;5023145;28;20047;-82
2023/05/30 01:05:05;;;;;;;17.92;6.88;;;;;;;13.70;100.00;94457.72;5039285;28;20028;-82
2023/05/30 01:10:15;;;;;;;12.30;6.70;;;;;;;13.94;100.00;94456.88;5057097;28;20032;-82
2023/05/30 01:13:11;;;;;;;12.57;6.47;;;;;;;13.89;100.00;94450.91;5039012;28;20102;-82
2023/05/30 01:15:44;;;;;;;23.00;7.03;;;;;;;13.75;100.00;94446.34;4995514;28;20041;-82
2023/05/30 01:18:20;;;;;;;;;;;;;;;13.42;100.00;94441.72;5023374;28;20021;-82
2023/05/30 01:20:49;;;;;;;16.05;7.43;;;;;;;13.60;100.00;94442.06;5022650;28;19917;-82
2023/05/30 01:26:57;;;;;;;14.73;6.50;;;;;;;13.87;100.00;94442.50;5056320;28;20039;-82
2023/05/30 01:29:23;;;;;;;14.97;7.00;;;;;;;13.91;100.00;94444.25;5038845;28;20028;-82
2023/05/30 01:31:49;;;;;;;13.48;6.60;;;;;;;13.92;100.00;94445.06;5038805;28;20025;-82
2023/05/30 01:34:14;;;;;;;11.55;6.53;;;;;;;13.98;100.00;94449.16;5038826;28;20342;-82
2023/05/30 01:36:40;;;;;;;11.75;6.70;;;;;;;14.03;100.00;94443.84;5038076;28;20024;-82
2023/05/30 01:39:24;;;;;;;12.13;6.40;;;;;;;14.05;100.00;94440.91;5037957;28;20021;-82
2023/05/30 01:42:01;;;;;;;19.98;7.03;;;;;;;13.96;100.00;94438.13;5056129;28;20033;-82
2023/05/30 01:44:40;;;;;;;14.77;6.50;;;;;;;13.86;100.00;94441.72;5022205;28;20067;-82
2023/05/30 01:47:16;;;;;;;13.48;6.68;;;;;;;13.86;100.00;94439.06;5037976;28;20323;-82
2023/05/30 01:49:48;;;;;;;14.38;7.00;;;;;;;13.52;100.00;94437.44;5021900;28;20033;-82
2023/05/30 01:52:17;;;;;;;15.40;6.80;;;;;;;13.59;100.00;94437.88;5056237;28;20383;-82
2023/05/30 01:55:03;;;;;;;14.55;6.88;;;;;;;13.50;100.00;94436.94;5038710;28;20029;-82
2023/05/30 01:57:29;;;;;;;14.45;6.82;;;;;;;13.46;100.00;94433.28;5055820;28;20064;-82
2023/05/30 02:02:42;;;;;;;12.45;6.80;;;;;;;13.49;100.00;94438.03;5040000;28;20032;-82
2023/05/30 02:05:08;;;;;;;20.27;6.97;;;;;;;13.18;100.00;94436.50;5037130;28;20052;-82
2023/05/30 02:10:17;;;;;;;13.50;7.45;;;;;;;13.02;100.00;94435.91;5066795;28;20035;-82
2023/05/30 02:12:43;;;;;;;12.40;7.43;;;;;;;13.06;100.00;94434.28;5057294;28;20454;-83
2023/05/30 02:17:53;;;;;;;13.82;7.68;;;;;;;13.03;100.00;94434.81;5059501;28;20035;-82
2023/05/30 02:20:19;;;;;;;16.60;7.55;;;;;;;13.08;100.00;94439.25;5040611;28;20024;-82
2023/05/30 02:22:44;;;;;;;13.18;7.22;;;;;;;13.22;100.00;94439.38;5040410;28;20089;-82
2023/05/30 02:25:10;;;;;;;15.52;7.07;;;;;;;13.35;100.00;94432.63;5056624;28;20047;-82
2023/05/30 02:27:35;;;;;;;18.42;7.00;;;;;;;13.48;100.00;94429.31;5074143;28;20024;-82
2023/05/30 02:30:00;;;;;;;13.50;6.78;;;;;;;13.56;100.00;94433.16;5040219;28;20017;-82
2023/05/30 02:32:26;;;;;;;15.82;6.60;;;;;;;13.65;100.00;94433.31;5056795;28;20068;-82
2023/05/30 02:34:54;;;;;;;12.48;6.68;;;;;;;13.73;100.00;94427.41;5056488;28;20555;-82
2023/05/30 02:37:42;;;;;;;15.90;6.45;;;;;;;13.73;100.00;94427.41;5056429;28;20085;-83
2023/05/30 02:40:11;;;;;;;9.48;6.13;;;;;;;13.60;100.00;94423.63;5056788;28;20052;-82
2023/05/30 02:42:55;;;;;;;14.38;6.18;;;;;;;13.65;100.00;94426.22;5056856;28;20054;-82
2023/05/30 02:45:39;;;;;;;15.68;6.43;;;;;;;13.63;100.00;94433.63;5056039;28;20025;-82
2023/05/30 02:48:05;;;;;;;10.68;6.07;;;;;;;13.76;100.00;94432.09;5039915;28;20035;-82
2023/05/30 02:50:31;;;;;;;13.50;6.47;;;;;;;13.85;100.00;94437.50;5056175;28;20084;-83
2023/05/30 02:52:57;;;;;;;12.80;7.03;;;;;;;13.48;100.00;94431.97;5056472;28;20024;-82
2023/05/30 02:55:22;;;;;;;10.73;6.53;;;;;;;13.60;100.00;94439.44;5055732;28;20032;-82
2023/05/30 02:57:47;;;;;;;11.55;6.05;;;;;;;13.79;100.00;94442.06;5056072;28;20139;-82
2023/05/30 03:00:13;;;;;;;9.88;5.68;;;;;;;13.65;100.00;94431.47;5055935;28;20036;-82
2023/05/30 03:02:39;;;;;;;12.45;6.68;;;;;;;13.82;100.00;94441.47;5056211;28;20044;-82
2023/05/30 03:05:05;;;;;;;11.50;6.53;;;;;;;13.81;100.00;94433.88;5056091;28;20322;-82
2023/05/30 03:07:32;;;;;;;14.73;6.15;;;;;;;13.88;100.00;94439.56;5056161;28;20025;-82
2023/05/30 03:09:58;;;;;;;9.77;6.10;;;;;;;13.83;100.00;94442.28;5073825;28;20330;-82
2023/05/30 03:12:24;;;;;;;11.07;6.00;;;;;;;13.78;100.00;94439.72;5073922;28;20522;-82
2023/05/30 03:14:49;;;;;;;13.32;6.10;;;;;;;13.74;100.00;94434.25;5064783;28;20033;-82
2023/05/30 03:17:15;;;;;;;17.02;6.43;;;;;;;13.70;100.00;94435.88;5030221;28;20025;-82
2023/05/30 03:19:41;;;;;;;15.20;6.18;;;;;;;13.54;100.00;94440.56;5041834;28;20029;-82
2023/05/30 03:22:07;;;;;;;15.70;7.10;;;;;;;13.87;100.00;94445.13;5064832;28;20036;-82
2023/05/30 03:24:51;;;;;;;11.88;7.22;;;;;;;13.69;100.00;94443.00;5034980;28;20033;-82
2023/05/30 03:27:17;;;;;;;13.68;6.93;;;;;;;13.73;100.00;94442.41;5039741;28;20449;-82
2023/05/30 03:29:42;;;;;;;16.60;7.22;;;;;;;13.28;100.00;94449.56;5056583;28;20037;-82
2023/05/30 03:32:08;;;;;;;14.43;7.18;;;;;;;12.89;100.00;94445.25;5056987;28;20020;-82
2023/05/30 03:34:33;;;;;;;21.15;7.97;;;;;;;12.84;100.00;94445.31;5068963;28;20346;-82
2023/05/30 03:37:02;;;;;;;20.92;8.65;;;;;;;13.19;100.00;94447.81;5036464;28;20040;-82
2023/05/30 03:39:28;;;;;;;20.88;8.55;;;;;;;13.24;100.00;94448.53;5023077;28;20032;-82
2023/05/30 03:41:53;;;;;;;16.55;9.07;;;;;;;13.41;100.00;94449.91;5056670;28;20039;-82
2023/05/30 03:44:37;;;;;;;18.67;8.30;;;;;;;13.68;100.00;94456.44;5074325;28;20116;-82
2023/05/30 03:47:03;;;;;;;16.35;7.93;;;;;;;13.83;100.00;94452.81;5056129;28;20033;-82
2023/05/30 03:49:29;;;;;;;17.95;9.15;;;;;;;13.92;100.00;94452.94;5040253;28;20043;-82
2023/05/30 03:52:15;;;;;;;17.42;8.40;;;;;;;13.92;100.00;94460.84;5040174;28;20025;-82
2023/05/30 03:54:41;;;;;;;16.90;8.13;;;;;;;13.98;100.00;94454.44;5056534;28;20059;-83
2023/05/30 03:57:25;;;;;;;19.02;8.40;;;;;;;13.99;100.00;94456.78;5056324;28;20024;-83
2023/05/30 03:59:50;;;;;;;21.80;8.90;;;;;;;13.95;100.00;94455.81;5056495;28;20029;-82
2023/05/30 04:05:18;;;;;;;14.45;7.90;;;;;;;13.89;100.00;94456.16;5063147;28;20421;-82
2023/05/30 04:07:44;;;;;;;20.25;8.75;;;;;;;13.97;100.00;94461.56;5059917;28;20032;-83
2023/05/30 04:10:10;;;;;;;22.67;8.32;;;;;;;14.04;100.00;94465.69;5060121;28;20031;-82
2023/05/30 04:12:35;;;;;;;23.45;9.15;;;;;;;14.18;100.00;94461.25;5043793;28;20429;-83
2023/05/30 04:15:00;;;;;;;22.08;8.88;;;;;;;14.12;100.00;94462.41;5078043;28;20024;-82
2023/05/30 04:17:26;;;;;;;24.52;9.57;;;;;;;14.09;100.00;94462.97;5059644;28;20358;-82
2023/05/30 04:19:52;;;;;;;13.35;7.35;;;;;;;14.20;100.00;94464.41;5077946;28;20078;-82
2023/05/30 04:22:17;;;;;;;18.05;7.40;;;;;;;14.42;100.00;94471.69;5043555;28;20093;-82
2023/05/30 04:24:43;;;;;;;17.58;7.40;;;;;;;14.27;100.00;94467.44;5043641;28;20032;-82
2023/05/30 04:27:08;;;;;;;13.00;6.63;;;;;;;14.15;100.00;94469.72;5042985;28;20496;-82
2023/05/30 04:29:53;;;;;;;22.33;8.23;;;;;;;13.69;100.00;94465.91;5043439;28;20032;-82
2023/05/30 04:32:19;;;;;;;21.52;8.45;;;;;;;13.28;100.00;94469.81;5059651;28;20430;-82
2023/05/30 04:34:45;;;;;;;16.40;8.48;;;;;;;13.47;100.00;94476.97;5077532;28;20047;-82
2023/05/30 04:39:58;;;;;;;20.73;8.40;;;;;;;13.22;100.00;94481.47;5062350;28;20039;-82
2023/05/30 04:42:27;;;;;;;17.42;8.40;;;;;;;13.61;100.00;94482.34;5043694;28;20040;-83
2023/05/30 04:45:16;;;;;;;15.32;8.00;;;;;;;14.22;100.00;94475.44;5059965;28;20036;-83
2023/05/30 04:47:44;;;;;;;14.30;7.22;;;;;;;14.77;100.00;94467.97;5060203;28;20024;-81
2023/05/30 04:50:10;;;;;;;14.80;7.55;;;;;;;15.19;100.00;94465.34;5043857;28;20035;-81
2023/05/30 04:55:39;;;;;;;19.58;7.72;;;;;;;15.82;100.00;94463.81;5077304;28;20031;-81
2023/05/30 05:00:50;;;;;;;13.25;7.60;;;;;;;15.99;100.00;94467.69;5062359;28;20354;-81
2023/05/30 05:03:15;;;;;;;16.55;8.18;;;;;;;15.52;100.00;94470.53;5077712;28;20119;-82
2023/05/30 05:05:41;;;;;;;14.65;7.05;;;;;;;15.64;100.00;94462.09;5076654;28;20120;-82
2023/05/30 05:08:26;;;;;;;18.00;6.93;;;;;;;15.66;100.00;94471.28;5077351;28;20438;-82
2023/05/30 05:10:51;;;;;;;12.85;7.13;;;;;;;15.70;100.00;94474.09;5071022;28;20024;-82
2023/05/30 05:13:17;;;;;;;11.20;6.35;;;;;;;15.81;100.00;94466.75;5029141;28;20498;-82
2023/05/30 05:16:01;;;;;;;12.00;6.72;;;;;;;15.80;100.00;94467.84;5058474;28;20046;-82
2023/05/30 05:18:27;;;;;;;17.58;6.43;;;;;;;15.80;100.00;94478.41;5059310;28;20036;-82
2023/05/30 05:20:52;;;;;;;13.57;6.43;;;;;;;15.96;100.00;94479.66;5055575;28;20128;-82
2023/05/30 05:23:18;;;;;;;17.50;6.78;;;;;;;15.96;100.00;94468.28;5042785;28;20081;-82
2023/05/30 05:25:43;;;;;;;15.80;7.05;;;;;;;15.75;100.00;94471.38;5058468;28;20024;-82
2023/05/30 05:28:09;;;;;;;17.67;8.02;;;;;;;15.73;100.00;94465.59;5022354;28;20086;-82
2023/05/30 05:30:35;;;;;;;15.00;7.10;;;;;;;15.07;100.00;94473.78;5057030;28;20025;-82
2023/05/30 05:33:00;;;;;;;13.05;6.20;;;;;;;15.31;100.00;94470.94;5039244;28;20035;-82
2023/05/30 05:35:48;;;;;;;17.27;7.43;;;;;;;15.86;100.00;94468.50;5056540;28;20029;-82
2023/05/30 05:38:14;;;;;;;15.40;6.65;;;;;;;16.31;100.00;94479.16;5056929;28;20115;-82
2023/05/30 05:40:59;;;;;;;18.33;7.18;;;;;;;16.40;100.00;94473.91;5039046;28;20041;-82
2023/05/30 05:43:24;;;;;;;11.52;6.75;;;;;;;17.08;100.00;94480.97;5056682;28;20025;-82
2023/05/30 05:46:08;;;;;;;17.67;7.25;;;;;;;17.32;100.00;94475.28;5038618;28;20092;-82
2023/05/30 05:48:33;;;;;;;18.58;10.00;;;;;;;16.87;100.00;94470.13;5039023;28;20068;-82
2023/05/30 05:51:17;;;;;;;18.73;8.13;;;;;;;16.89;100.00;94470.59;5038824;28;20560;-82
2023/05/30 05:53:43;;;;;;;21.73;9.32;;;;;;;16.78;100.00;94470.84;5022423;28;20137;-82
2023/05/30 05:56:08;;;;;;;21.70;9.38;;;;;;;17.31;100.00;94472.97;5038299;28;20123;-82
2023/05/30 05:58:34;;;;;;;16.63;9.50;;;;;;;17.41;100.00;94474.56;5056541;28;20083;-82
2023/05/30 06:01:18;;;;;;;16.88;7.22;;;;;;;17.77;100.00;94474.31;5038483;28;20041;-82
2023/05/30 06:03:44;;;;;;;14.93;6.88;;;;;;;17.82;100.00;94481.34;5038417;28;20036;-82
2023/05/30 06:06:28;;;;;;;14.85;6.88;;;;;;;17.75;100.00;94483.66;5038225;28;20346;-82
2023/05/30 06:08:54;;;;;;;14.20;7.20;;;;;;;17.77;100.00;94486.75;5022116;28;20090;-82
2023/05/30 06:11:19;;;;;;;12.75;6.90;;;;;;;18.06;100.00;94488.06;5038407;28;20037;-82
2023/05/30 06:13:44;;;;;;;13.05;6.68;;;;;;;18.29;100.00;94486.06;5038379;28;20028;-82
2023/05/30 06:16:10;;;;;;;16.85;6.50;;;;;;;18.14;100.00;94481.19;5038147;28;20059;-82
2023/05/30 06:18:35;;;;;;;17.15;8.05;;;;;;;18.54;100.00;94486.31;5038405;28;20103;-82
2023/05/30 06:21:01;;;;;;;18.42;8.00;;;;;;;18.46;100.00;94489.78;5056133;28;20063;-82
2023/05/30 06:23:27;;;;;;;21.55;9.55;;;;;;;18.46;100.00;94484.47;5038215;28;20037;-83
2023/05/30 06:25:52;;;;;;;17.88;8.85;;;;;;;18.55;100.00;94484.47;5037416;28;20036;-83
2023/05/30 06:28:17;;;;;;;24.90;9.98;;;;;;;18.56;100.00;94486.78;5038052;28;20059;-82
2023/05/30 06:33:27;;;;;;;18.83;9.95;;;;;;;17.74;100.00;94487.38;5040882;28;20044;-84
2023/05/30 06:35:52;;;;;;;21.33;11.00;;;;;;;17.52;100.00;94486.44;5037768;28;20044;-82
2023/05/30 06:38:19;;;;;;;18.90;10.18;;;;;;;17.69;100.00;94488.31;5037847;28;20035;-82
2023/05/30 06:40:45;;;;;;;24.58;10.38;;;;;;;17.47;100.00;94492.63;5021684;28;20032;-82
2023/05/30 06:46:32;;;;;;;17.13;8.40;;;;;;;18.30;100.00;94506.19;5040099;28;20083;-82
2023/05/30 06:48:57;;;;;;;15.32;8.90;;;;;;;17.50;100.00;94502.63;5037804;28;20033;-82
2023/05/30 06:51:41;;;;;;;20.20;7.68;;;;;;;18.01;100.00;94502.25;5037475;28;20057;-82
2023/05/30 06:54:26;;;;;;;13.98;8.07;;;;;;;18.23;100.00;94511.94;5037784;28;20056;-82
2023/05/30 06:56:51;;;;;;;15.63;6.35;;;;;;;18.54;100.00;94504.88;5055106;28;20091;-82
2023/05/30 06:59:16;;;;;;;15.95;8.43;;;;;;;17.97;100.00;94511.13;5037617;28;20040;-82
2023/05/30 07:04:26;;;;;;;17.63;8.77;;;;;;;19.64;100.00;94508.91;5055506;28;20051;-84
2023/05/30 07:06:52;;;;;;;16.27;8.98;;;;;;;19.70;100.00;94514.06;5037218;28;20111;-84
2023/05/30 07:09:18;;;;;;;16.95;8.18;;;;;;;19.79;100.00;94514.78;5037544;28;20047;-84
2023/05/30 07:11:43;;;;;;;22.23;9.32;;;;;;;19.80;100.00;94515.56;5055229;28;20029;-84
2023/05/30 07:14:11;;;;;;;21.27;9.48;;;;;;;19.41;100.00;94513.72;5037483;28;20427;-83
2023/05/30 07:16:36;;;;;;;21.15;10.50;;;;;;;19.81;100.00;94517.13;5037304;28;20446;-84
2023/05/30 07:19:02;;;;;;;18.55;10.57;;;;;;;20.05;100.00;94517.31;5020859;28;20110;-84
2023/05/30 07:21:28;;;;;;;21.73;10.48;;;;;;;20.05;100.00;94516.50;5037343;28;20032;-82
2023/05/30 07:23:55;;;;;;;23.50;9.63;;;;;;;19.90;100.00;94513.28;5037728;28;20079;-84
2023/05/30 07:26:21;;;;;;;18.90;10.27;;;;;;;20.60;100.00;94514.69;5020999;28;20036;-82
2023/05/30 07:31:30;;;;;;;27.92;12.13;;;;;;;20.79;100.00;94504.63;5040097;28;20068;-84
2023/05/30 07:33:56;;;;;;;22.15;11.73;;;;;;;20.49;100.00;94497.56;5037328;28;20072;-82
2023/05/30 07:39:06;;;;;;;23.83;11.95;;;;;;;20.70;100.00;94491.41;5042894;28;20036;-84
2023/05/30 07:41:31;;;;;;;22.30;12.82;;;;;;;20.29;100.00;94488.50;5041530;28;20024;-84
2023/05/30 07:43:58;;;;;;;24.08;11.07;;;;;;;20.21;100.00;94484.81;5024783;28;20036;-84
2023/05/30 07:46:43;;;;;;;20.08;9.88;;;;;;;20.87;100.00;94485.94;5040931;28;20040;-84
2023/05/30 07:49:08;;;;;;;23.52;10.60;;;;;;;20.75;100.00;94485.88;5059009;28;20327;-84
2023/05/30 07:51:35;;;;;;;29.08;11.25;;;;;;;20.66;100.00;94483.31;5058916;28;20040;-84
2023/05/30 07:54:03;;;;;;;20.55;10.18;;;;;;;20.28;100.00;94478.97;5024931;28;20067;-84
2023/05/30 07:56:29;;;;;;;22.13;10.10;;;;;;;19.76;100.00;94489.63;5040671;28;20031;-84
2023/05/30 07:58:54;;;;;;;21.55;8.65;;;;;;;20.03;100.00;94489.47;5041061;28;20430;-82
2023/05/30 08:01:20;;;;;;;20.13;9.77;;;;;;;20.08;100.00;94491.16;5024206;28;20040;-84
2023/05/30 08:03:45;;;;;;;18.00;8.57;;;;;;;20.22;100.00;94489.00;5024677;28;20025;-84
2023/05/30 08:06:11;;;;;;;11.25;7.40;;;;;;;20.38;100.00;94491.06;5023824;28;20677;-84
2023/05/30 08:11:21;;;;;;;19.40;7.68;;;;;;;19.86;100.00;94491.13;5043604;28;20035;-84
2023/05/30 08:16:56;;;;;;;13.15;7.35;;;;;;;20.39;100.00;94489.97;5058147;28;20086;-84
2023/05/30 08:19:42;;;;;;;14.75;6.70;;;;;;;20.07;92.08;94490.38;5040867;28;20040;-84
2023/05/30 08:22:26;;;;;;;14.55;6.60;;;;;;;20.08;99.65;94493.81;5058328;28;20346;-84
2023/05/30 08:24:55;;;;;;;13.52;6.43;;;;;;;20.23;97.57;94493.22;5040551;28;20036;-84
2023/05/30 08:27:21;;;;;;;16.77;8.38;;;;;;;19.90;90.66;94494.69;5024144;28;20056;-84
2023/05/30 08:29:49;;;;;;;15.57;6.55;;;;;;;20.13;100.00;94498.94;5024148;28;20028;-84
2023/05/30 08:32:16;;;;;;;13.48;7.00;;;;;;;19.98;96.77;94495.00;5040826;28;20052;-84
2023/05/30 08:35:00;;;;;;;14.55;6.65;;;;;;;19.88;92.76;94491.56;5024074;28;20371;-83
2023/05/30 08:37:26;;;;;;;13.05;5.93;;;;;;;19.60;95.82;94499.28;5039818;28;20346;-84
2023/05/30 08:39:51;;;;;;;12.50;5.85;;;;;;;19.98;88.85;94490.44;5040226;28;20033;-84
2023/05/30 08:42:16;;;;;;;12.50;6.05;;;;;;;20.24;94.70;94494.03;5057982;28;20029;-84
2023/05/30 08:44:42;;;;;;;14.73;6.50;;;;;;;19.97;100.00;94494.19;5057946;28;20032;-84
2023/05/30 08:47:12;;;;;;;12.05;6.28;;;;;;;20.05;100.00;94493.38;5039757;28;20028;-84
2023/05/30 08:49:41;;;;;;;13.50;6.93;;;;;;;20.16;100.00;94491.09;5039964;28;20033;-84
2023/05/30 08:52:11;;;;;;;12.52;6.22;;;;;;;20.22;100.00;94494.34;5057771;28;20033;-84
2023/05/30 08:57:31;;;;;;;11.02;6.15;;;;;;;20.12;100.00;94487.53;5042298;28;20102;-84
2023/05/30 08:59:57;;;;;;;14.63;6.65;;;;;;;20.27;100.00;94494.13;5039914;28;20064;-84
2023/05/30 09:05:45;;;;;;;14.70;6.60;;;;;;;20.34;100.00;94499.72;5057390;28;20043;-84
2023/05/30 09:08:12;;;;;;;18.00;7.75;;;;;;;20.00;100.00;94490.13;5039715;28;20029;-84
2023/05/30 09:13:59;;;;;;;16.15;7.03;;;;;;;20.60;100.00;94492.59;5057532;28;20040;-84
2023/05/30 09:16:25;;;;;;;14.05;6.53;;;;;;;20.53;100.00;94490.47;5057041;28;20035;-84
2023/05/30 09:18:50;;;;;;;14.95;6.60;;;;;;;20.96;100.00;94493.84;5039656;28;20029;-84
2023/05/30 09:21:15;;;;;;;12.48;6.55;;;;;;;20.70;97.97;94496.72;5039622;28;20029;-82
2023/05/30 09:23:42;;;;;;;13.95;6.45;;;;;;;20.62;98.02;94495.69;5023119;28;20174;-84
2023/05/30 09:26:10;;;;;;;17.20;6.15;;;;;;;20.39;100.00;94508.59;5039091;28;20401;-84
2023/05/30 09:28:36;;;;;;;11.45;6.07;;;;;;;20.82;100.00;94504.00;5039624;28;20025;-84
2023/05/30 09:31:02;;;;;;;14.18;6.75;;;;;;;20.55;100.00;94495.47;5023385;28;20422;-81
2023/05/30 09:36:54;;;;;;;12.00;5.75;;;;;;;20.66;97.59;94512.59;5041611;28;20068;-84
2023/05/30 09:39:38;;;;;;;15.00;6.18;;;;;;;20.96;93.79;94504.47;5023196;28;20350;-84
2023/05/30 09:42:05;;;;;;;13.20;6.25;;;;;;;21.01;100.00;94506.13;5039296;28;20033;-84
2023/05/30 09:44:31;;;;;;;13.73;6.57;;;;;;;21.11;100.00;94504.94;5039132;28;20040;-84
2023/05/30 09:46:57;;;;;;;11.98;6.78;;;;;;;20.38;91.74;94507.81;5022340;28;20376;-84
2023/05/30 09:49:22;;;;;;;13.32;6.38;;;;;;;21.03;100.00;94518.03;5038900;28;20024;-84
2023/05/30 09:51:50;;;;;;;15.20;7.20;;;;;;;20.73;97.39;94506.69;5038838;28;20025;-82
2023/05/30 09:54:34;;;;;;;13.60;6.65;;;;;;;21.25;100.00;94517.94;5038916;28;20477;-82
2023/05/30 09:57:02;;;;;;;14.80;6.75;;;;;;;21.12;100.00;94522.50;5056296;28;20060;-84
2023/05/30 10:02:49;;;;;;;15.05;6.80;;;;;;;21.13;100.00;94500.81;5056227;28;20063;-84
2023/05/30 10:05:22;;;;;;;13.07;7.07;;;;;;;21.71;100.00;94501.88;5056507;28;20062;-84
2023/05/30 10:08:06;;;;;;;;;;;;;;;21.71;93.02;94496.53;5022745;28;20434;-84
2023/05/30 10:10:51;;;;;;;15.55;6.25;;;;;;;21.77;93.76;94505.09;5056432;28;19909;-84
2023/05/30 10:13:19;;;;;;;11.05;6.28;;;;;;;22.10;92.21;94496.13;5022055;28;20027;-84
2023/05/30 10:15:45;;;;;;;13.50;6.22;;;;;;;22.26;100.00;94490.88;5038342;28;20036;-84
2023/05/30 10:18:15;;;;;;;14.85;6.80;;;;;;;21.52;85.29;94500.53;5038566;28;20488;-84
2023/05/30 10:21:04;;;;;;;13.90;6.78;;;;;;;21.16;92.21;94507.38;5038566;28;20195;-84
2023/05/30 10:23:48;;;;;;;12.85;6.60;;;;;;;21.28;94.45;94501.28;5056093;28;20056;-84
2023/05/30 10:29:01;;;;;;;14.40;6.88;;;;;;;21.51;92.57;94496.28;5040936;28;20035;-84
2023/05/30 10:31:28;;;;;;;13.88;7.93;;;;;;;21.26;98.11;94496.31;5038214;28;20031;-84
2023/05/30 10:34:13;;;;;;;15.82;7.13;;;;;;;21.16;86.28;94499.41;5038189;28;20029;-84
2023/05/30 10:36:44;;;;;;;17.92;7.70;;;;;;;21.00;91.02;94499.25;5037705;28;20037;-84
2023/05/30 10:39:20;;;;;;;15.65;7.32;;;;;;;21.24;95.01;94506.53;5022521;28;20033;-84
2023/05/30 10:42:08;;;;;;;14.82;7.72;;;;;;;21.44;93.24;94498.75;5055998;28;20037;-84
2023/05/30 10:48:16;;;;;;;17.45;7.72;;;;;;;21.61;81.19;94509.19;5055300;28;20086;-85
2023/05/30 10:50:45;;;;;;;14.15;7.45;;;;;;;21.90;89.72;94506.63;5055579;28;20036;-84
2023/05/30 10:53:13;;;;;;;16.02;8.00;;;;;;;21.97;98.62;94503.41;5037783;28;20075;-84
2023/05/30 10:55:41;;;;;;;15.48;7.20;;;;;;;21.91;90.76;94496.72;5037297;28;20031;-84
2023/05/30 11:04:13;;;;;;;15.95;8.50;;;;;;;21.20;97.63;94502.94;5040433;28;20047;-84
2023/05/30 11:06:44;;;;;;;13.48;7.53;;;;;;;21.67;100.00;94501.00;5037183;28;20032;-85
2023/05/30 11:12:00;;;;;;;24.88;9.23;;;;;;;21.01;96.79;94490.94;5055193;28;20488;-84
2023/05/30 11:14:28;;;;;;;20.23;8.32;;;;;;;21.61;100.00;94487.84;5037626;28;20082;-84
2023/05/30 11:17:05;;;;;;;14.57;7.93;;;;;;;21.92;97.55;94484.94;5020728;28;20040;-84
2023/05/30 11:19:42;;;;;;;18.73;8.27;;;;;;;22.28;92.46;94472.63;5037833;28;20069;-85
2023/05/30 11:22:10;;;;;;;14.50;7.97;;;;;;;21.65;96.09;94489.84;5074360;28;20063;-85
2023/05/30 11:25:31;;;;;;;18.98;8.98;;;;;;;21.63;96.16;94492.06;5032179;28;20032;-85
2023/05/30 11:28:12;;;;;;;19.88;8.85;;;;;;;21.61;88.33;94492.41;4986716;28;20452;-84
2023/05/30 11:30:56;;;;;;;16.13;8.63;;;;;;;21.96;92.96;94478.59;5049230;28;20041;-85
2023/05/30 11:33:24;;;;;;;16.08;9.02;;;;;;;22.09;95.56;94478.56;5054954;28;20112;-84
2023/05/30 11:35:49;;;;;;;19.25;8.82;;;;;;;21.79;97.46;94470.88;5036971;28;20033;-84
2023/05/30 11:41:11;;;;;;;17.45;8.13;;;;;;;23.41;85.50;94460.22;5039743;28;20089;-82
2023/05/30 11:43:41;;;;;;;18.95;8.38;;;;;;;23.83;100.00;94464.94;5037026;28;20028;-84
2023/05/30 11:48:56;;;;;;;16.02;8.88;;;;;;;22.81;84.58;94450.34;5039596;28;20086;-82
2023/05/30 11:54:06;;;;;;;15.80;8.57;;;;;;;22.91;100.00;94449.84;5060068;28;20124;-83
2023/05/30 11:56:31;;;;;;;15.35;7.68;;;;;;;22.98;86.02;94443.91;5056805;28;20123;-83
2023/05/30 11:58:57;;;;;;;11.57;6.47;;;;;;;23.33;87.62;94453.13;5056961;28;20039;-82
2023/05/30 12:01:23;;;;;;;15.90;7.38;;;;;;;22.97;87.81;94447.69;5056766;28;20076;-83
2023/05/30 12:03:49;;;;;;;28.75;8.60;;;;;;;23.33;90.88;94443.22;5057083;28;20074;-82
2023/05/30 12:06:15;;;;;;;16.80;8.43;;;;;;;23.90;95.28;94439.47;5039667;28;20052;-82
2023/05/30 12:08:59;;;;;;;13.20;7.60;;;;;;;23.95;85.21;94442.63;5040291;28;20066;-85
2023/05/30 12:11:24;;;;;;;11.30;6.80;;;;;;;24.35;85.28;94434.63;5056918;28;20357;-83
2023/05/30 12:13:53;;;;;;;16.23;8.13;;;;;;;23.60;80.29;94440.78;5040464;28;20033;-82
2023/05/30 12:16:19;;;;;;;14.68;7.70;;;;;;;23.85;77.45;94446.66;5056588;28;20070;-82
2023/05/30 12:18:45;;;;;;;19.60;8.38;;;;;;;23.24;68.71;94440.72;5056859;28;20036;-85
2023/05/30 12:21:12;;;;;;;11.93;7.13;;;;;;;23.98;69.72;94443.84;5040307;28;20037;-82
2023/05/30 12:23:42;;;;;;;12.45;7.55;;;;;;;24.16;70.16;94436.19;5040748;28;20040;-85
2023/05/30 12:26:16;;;;;;;12.63;7.03;;;;;;;24.28;70.25;94435.28;5060397;28;20039;-82
2023/05/30 12:28:49;;;;;;;14.68;7.55;;;;;;;24.57;70.88;94431.22;5060589;28;20123;-83
2023/05/30 12:31:24;;;;;;;19.10;8.98;;;;;;;23.89;71.90;94444.06;5060839;28;20020;-83
2023/05/30 12:34:01;;;;;;;13.63;7.38;;;;;;;24.06;81.53;94421.47;5060403;28;20035;-83
2023/05/30 12:36:46;;;;;;;16.50;8.18;;;;;;;22.62;72.83;94435.78;5059578;28;20761;-82
2023/05/30 12:39:32;;;;;;;14.73;7.43;;;;;;;23.78;77.02;94432.34;5060131;28;20028;-81
2023/05/30 12:41:57;;;;;;;15.98;7.38;;;;;;;24.50;67.43;94432.97;5060330;28;20044;-84
2023/05/30 12:44:23;;;;;;;16.67;8.40;;;;;;;24.17;66.83;94428.94;5043661;28;20349;-82
2023/05/30 12:47:07;;;;;;;14.50;7.20;;;;;;;23.11;70.02;94431.25;5043289;28;20532;-83
2023/05/30 12:49:32;;;;;;;14.00;7.28;;;;;;;23.22;71.58;94423.47;5060008;28;20099;-83
2023/05/30 12:51:58;;;;;;;10.32;6.78;;;;;;;23.17;68.48;94427.19;5059921;28;20120;-83
2023/05/30 12:54:26;;;;;;;10.63;6.43;;;;;;;23.19;68.31;94422.25;5059982;28;20110;-83
2023/05/30 12:57:10;;;;;;;13.65;6.30;;;;;;;23.94;72.86;94418.91;5059446;28;20088;-83
2023/05/30 12:59:37;;;;;;;14.90;6.32;;;;;;;24.46;63.78;94408.06;5077739;28;20446;-83
2023/05/30 13:02:03;;;;;;;13.45;6.32;;;;;;;24.05;62.25;94409.22;5078003;28;20315;-86
2023/05/30 13:04:28;;;;;;;13.45;6.18;;;;;;;25.01;74.33;94402.47;5058989;28;20102;-85